createdAt,value
2022-08-28T00:00:45.424Z,16.70
2022-08-28T00:03:13.728Z,16.60
2022-08-28T00:05:43.278Z,16.60
2022-08-28T00:08:12.381Z,16.70
2022-08-28T00:10:40.360Z,16.70
2022-08-28T00:13:09.153Z,16.60
2022-08-28T00:15:39.021Z,16.70
2022-08-28T00:18:06.431Z,16.60
2022-08-28T00:20:34.779Z,16.70
2022-08-28T00:23:02.254Z,16.70
2022-08-28T00:25:31.653Z,16.70
2022-08-28T00:28:05.192Z,16.80
2022-08-28T00:30:38.089Z,16.80
2022-08-28T00:33:12.985Z,16.80
2022-08-28T00:35:41.203Z,16.80
2022-08-28T00:38:09.800Z,16.90
2022-08-28T00:40:38.229Z,16.90
2022-08-28T00:43:06.544Z,16.90
2022-08-28T00:45:39.286Z,16.90
2022-08-28T00:48:06.370Z,17.00
2022-08-28T00:50:56.766Z,17.00
2022-08-28T00:53:29.906Z,16.90
2022-08-28T00:56:01.369Z,17.00
2022-08-28T00:58:29.046Z,16.90
2022-08-28T01:00:55.916Z,16.90
2022-08-28T01:03:25.046Z,16.90
2022-08-28T01:05:53.772Z,16.90
2022-08-28T01:08:20.522Z,16.80
2022-08-28T01:10:54.712Z,16.80
2022-08-28T01:13:23.397Z,16.80
2022-08-28T01:15:51.266Z,16.90
2022-08-28T01:18:19.419Z,17.00
2022-08-28T01:20:59.116Z,16.90
2022-08-28T01:23:45.719Z,17.00
2022-08-28T01:26:12.775Z,16.90
2022-08-28T01:28:40.801Z,16.90
2022-08-28T01:31:11.522Z,17.00
2022-08-28T01:33:42.348Z,17.10
2022-08-28T01:36:11.988Z,17.00
2022-08-28T01:38:40.291Z,17.10
2022-08-28T01:41:07.339Z,17.00
2022-08-28T01:43:34.059Z,17.00
2022-08-28T01:46:04.384Z,17.10
2022-08-28T01:48:34.956Z,17.10
2022-08-28T01:51:02.821Z,17.00
2022-08-28T01:53:33.020Z,17.10
2022-08-28T01:56:01.653Z,17.10
2022-08-28T01:58:30.219Z,17.10
2022-08-28T02:00:57.450Z,17.20
2022-08-28T02:03:24.178Z,17.20
2022-08-28T02:05:52.122Z,17.20
2022-08-28T02:08:19.367Z,17.20
2022-08-28T02:10:47.228Z,17.20
2022-08-28T02:13:14.221Z,17.20
2022-08-28T02:15:43.169Z,17.20
2022-08-28T02:18:10.473Z,17.20
2022-08-28T02:20:37.861Z,17.10
2022-08-28T02:23:05.980Z,17.20
2022-08-28T02:25:33.106Z,17.20
2022-08-28T02:27:59.983Z,17.20
2022-08-28T02:30:26.873Z,17.10
2022-08-28T02:32:54.084Z,17.10
2022-08-28T02:35:22.663Z,17.10
2022-08-28T02:37:49.906Z,17.10
2022-08-28T02:40:19.582Z,17.10
2022-08-28T02:42:46.336Z,17.10
2022-08-28T02:45:14.663Z,17.20
2022-08-28T02:47:43.599Z,17.20
2022-08-28T02:50:13.050Z,17.10
2022-08-28T02:52:41.269Z,17.00
2022-08-28T02:55:09.536Z,17.00
2022-08-28T02:57:36.420Z,17.10
2022-08-28T03:00:12.101Z,17.10
2022-08-28T03:02:40.711Z,17.10
2022-08-28T03:05:08.955Z,17.20
2022-08-28T03:07:35.824Z,17.20
2022-08-28T03:10:03.395Z,17.20
2022-08-28T03:12:30.045Z,17.20
2022-08-28T03:14:56.835Z,17.10
2022-08-28T03:17:23.557Z,17.20
2022-08-28T03:19:51.014Z,17.20
2022-08-28T03:22:39.113Z,17.20
2022-08-28T03:25:07.091Z,17.10
2022-08-28T03:27:34.135Z,17.10
2022-08-28T03:30:02.635Z,17.10
2022-08-28T03:32:29.540Z,17.10
2022-08-28T03:34:56.255Z,17.10
2022-08-28T03:37:22.955Z,17.20
2022-08-28T03:39:49.853Z,17.20
2022-08-28T03:42:17.231Z,17.10
2022-08-28T03:44:44.013Z,17.10
2022-08-28T03:47:12.193Z,17.10
2022-08-28T03:49:39.773Z,17.10
2022-08-28T03:52:06.527Z,17.10
2022-08-28T03:54:33.184Z,17.00
2022-08-28T03:57:00.368Z,17.10
2022-08-28T03:59:33.511Z,17.10
2022-08-28T04:02:00.400Z,17.10
2022-08-28T04:04:27.819Z,17.20
2022-08-28T04:06:54.509Z,17.20
2022-08-28T04:09:21.213Z,17.30
2022-08-28T04:11:47.842Z,17.20
2022-08-28T04:14:14.485Z,17.20
2022-08-28T04:16:41.461Z,17.20
2022-08-28T04:19:08.166Z,17.10
2022-08-28T04:21:34.806Z,17.00
2022-08-28T04:24:01.498Z,17.00
2022-08-28T04:26:29.177Z,17.00
2022-08-28T04:28:56.361Z,17.00
2022-08-28T04:31:32.401Z,17.00
2022-08-28T04:34:04.925Z,17.00
2022-08-28T04:36:33.523Z,17.00
2022-08-28T04:39:01.519Z,17.00
2022-08-28T04:41:28.777Z,17.20
2022-08-28T04:43:57.428Z,17.20
2022-08-28T04:46:24.980Z,17.20
2022-08-28T04:48:52.115Z,17.20
2022-08-28T04:51:20.297Z,17.20
2022-08-28T04:53:47.389Z,17.30
2022-08-28T04:56:14.922Z,17.30
2022-08-28T04:58:43.633Z,17.30
2022-08-28T05:01:18.644Z,17.30
2022-08-28T05:03:47.032Z,17.30
2022-08-28T05:06:15.919Z,17.20
2022-08-28T05:08:42.860Z,17.20
2022-08-28T05:11:12.251Z,17.20
2022-08-28T05:13:38.992Z,17.20
2022-08-28T05:16:06.322Z,17.30
2022-08-28T05:18:33.326Z,17.30
2022-08-28T05:21:01.750Z,17.30
2022-08-28T05:23:29.165Z,17.30
2022-08-28T05:25:56.254Z,17.40
2022-08-28T05:28:26.315Z,17.40
2022-08-28T05:30:53.099Z,17.40
2022-08-28T05:33:20.093Z,17.30
2022-08-28T05:35:47.555Z,17.20
2022-08-28T05:38:16.579Z,17.20
2022-08-28T05:40:49.023Z,17.20
2022-08-28T05:43:16.989Z,17.20
2022-08-28T05:45:43.908Z,17.20
2022-08-28T05:48:11.827Z,17.20
2022-08-28T05:50:39.440Z,17.20
2022-08-28T05:53:11.265Z,17.20
2022-08-28T05:55:40.749Z,17.20
2022-08-28T05:58:26.187Z,17.30
2022-08-28T06:00:52.841Z,17.30
2022-08-28T06:03:19.504Z,17.40
2022-08-28T06:05:46.208Z,17.30
2022-08-28T06:08:13.359Z,17.30
2022-08-28T06:10:44.713Z,17.30
2022-08-28T06:13:13.970Z,17.40
2022-08-28T06:15:45.433Z,17.40
2022-08-28T06:18:13.262Z,17.40
2022-08-28T06:20:42.202Z,17.40
2022-08-28T15:51:36.206Z,17.40
2022-08-28T15:54:02.899Z,25.60
2022-08-28T15:56:29.620Z,24.80
2022-08-28T15:58:56.562Z,24.60
2022-08-28T16:01:23.302Z,24.50
2022-08-28T16:03:50.042Z,24.30
2022-08-28T16:06:19.902Z,24.30
2022-08-28T16:08:47.495Z,24.40
2022-08-28T16:11:22.976Z,24.50
2022-08-28T16:13:51.087Z,24.50
2022-08-28T16:16:18.751Z,24.50
2022-08-28T16:18:45.700Z,24.60
2022-08-28T16:21:13.226Z,24.50
2022-08-28T16:23:40.022Z,24.50
2022-08-28T16:26:07.395Z,24.50
2022-08-28T16:28:35.477Z,24.70
2022-08-28T16:31:07.353Z,24.60
2022-08-28T16:33:34.980Z,24.50
2022-08-28T16:36:07.527Z,24.50
2022-08-28T16:38:37.433Z,24.80
2022-08-28T16:41:04.118Z,25.20
2022-08-28T16:43:30.811Z,25.30
2022-08-28T16:45:57.556Z,25.10
2022-08-28T16:48:24.168Z,25.20
2022-08-28T16:50:50.805Z,25.20
2022-08-28T16:53:20.059Z,25.20
2022-08-28T16:55:53.767Z,25.40
2022-08-28T16:58:20.647Z,25.40
2022-08-28T17:00:52.905Z,25.30
2022-08-28T17:03:26.168Z,24.80
2022-08-28T17:05:54.949Z,24.20
2022-08-28T17:08:21.797Z,23.90
2022-08-28T17:10:48.483Z,23.70
2022-08-28T17:13:15.325Z,23.60
2022-08-28T17:15:42.119Z,23.10
2022-08-28T17:18:08.945Z,22.80
2022-08-28T17:20:54.051Z,22.60
2022-08-28T17:23:20.740Z,22.30
2022-08-28T17:25:47.468Z,22.10
2022-08-28T17:28:15.239Z,22.00
2022-08-28T17:30:41.996Z,21.80
2022-08-28T17:33:08.840Z,21.60
2022-08-28T17:35:41.878Z,21.60
2022-08-28T17:38:08.993Z,21.40
2022-08-28T17:40:35.942Z,21.20
2022-08-28T17:43:03.557Z,21.20
2022-08-28T17:45:30.194Z,21.10
2022-08-28T17:47:57.014Z,21.00
2022-08-28T17:50:24.033Z,21.00
2022-08-28T17:52:50.711Z,20.90
2022-08-28T17:55:19.192Z,20.80
2022-08-28T17:57:45.855Z,20.70
2022-08-28T18:00:16.226Z,20.60
2022-08-28T18:02:44.318Z,20.60
2022-08-28T18:05:13.296Z,20.50
2022-08-28T18:07:40.334Z,20.40
2022-08-28T18:10:09.478Z,20.30
2022-08-28T18:12:36.131Z,20.30
2022-08-28T18:15:03.596Z,20.20
2022-08-28T18:17:30.374Z,20.10
2022-08-28T18:19:57.353Z,20.00
2022-08-28T18:22:29.005Z,19.90
2022-08-28T18:24:56.423Z,19.90
2022-08-28T18:27:26.443Z,19.80
2022-08-28T18:29:53.695Z,19.70
2022-08-28T18:32:20.351Z,19.70
2022-08-28T18:34:47.101Z,19.60
2022-08-28T18:37:13.781Z,19.60
2022-08-28T18:39:40.472Z,19.50
2022-08-28T18:42:09.689Z,19.50
2022-08-28T18:44:36.355Z,19.50
2022-08-28T18:47:03.107Z,19.40
2022-08-28T18:49:29.834Z,19.40
2022-08-28T18:51:56.491Z,19.30
2022-08-28T18:54:23.302Z,19.20
2022-08-28T18:56:50.526Z,19.20
2022-08-28T18:59:17.751Z,19.20
2022-08-28T19:01:44.795Z,19.20
2022-08-28T19:04:11.578Z,19.10
2022-08-28T19:06:40.054Z,19.10
2022-08-28T19:09:06.748Z,19.10
2022-08-28T19:11:33.835Z,19.00
2022-08-28T19:14:03.810Z,19.00
2022-08-28T19:16:32.039Z,19.00
2022-08-28T19:18:58.736Z,18.90
2022-08-28T19:21:26.453Z,19.00
2022-08-28T19:23:55.625Z,18.90
2022-08-28T19:26:24.505Z,18.90
2022-08-28T19:28:51.490Z,18.90
2022-08-28T19:31:18.646Z,18.80
2022-08-28T19:33:47.052Z,18.80
2022-08-28T19:36:15.304Z,18.70
2022-08-28T19:38:42.452Z,18.70
2022-08-28T19:41:11.189Z,18.60
2022-08-28T19:43:44.574Z,18.60
2022-08-28T19:46:19.328Z,18.60
2022-08-28T19:48:48.013Z,18.60
2022-08-28T19:51:17.677Z,18.50
2022-08-28T19:53:56.798Z,18.60
2022-08-28T19:56:27.562Z,18.50
2022-08-28T19:58:54.963Z,18.50
2022-08-28T20:01:21.762Z,18.40
2022-08-28T20:03:48.576Z,18.30
2022-08-28T20:06:15.239Z,18.20
2022-08-28T20:08:41.916Z,18.10
2022-08-28T20:11:09.650Z,18.10
2022-08-28T20:13:36.351Z,18.00
2022-08-28T20:16:04.724Z,18.00
2022-08-28T20:18:31.437Z,18.00
2022-08-28T20:20:58.070Z,18.00
2022-08-28T20:23:24.742Z,18.00
2022-08-28T20:25:51.610Z,18.00
2022-08-28T20:28:19.399Z,18.00
2022-08-28T20:30:46.727Z,17.90
2022-08-28T20:33:13.636Z,17.80
2022-08-28T20:35:40.418Z,17.80
2022-08-28T20:38:07.349Z,17.70
2022-08-28T20:40:34.233Z,17.70
2022-08-28T20:43:01.051Z,17.60
2022-08-28T20:45:28.329Z,17.60
2022-08-28T20:47:54.949Z,17.60
2022-08-28T20:50:21.593Z,17.50
2022-08-28T20:52:48.279Z,17.50
2022-08-28T20:55:14.966Z,17.40
2022-08-28T20:57:41.979Z,17.40
2022-08-28T21:00:10.415Z,17.40
2022-08-28T21:02:37.475Z,17.30
2022-08-28T21:05:05.231Z,17.40
2022-08-28T21:07:33.980Z,17.30
2022-08-28T21:10:06.625Z,17.40
2022-08-28T21:12:38.497Z,17.40
2022-08-28T21:15:08.341Z,17.40
2022-08-28T21:17:35.060Z,17.40
2022-08-28T21:20:05.781Z,17.30
2022-08-28T21:22:35.242Z,17.30
2022-08-28T21:25:04.310Z,17.30
2022-08-28T21:27:31.042Z,17.30
2022-08-28T21:29:59.815Z,17.20
2022-08-28T21:32:27.739Z,17.20
2022-08-28T21:34:55.085Z,17.20
2022-08-28T21:37:22.592Z,17.20
2022-08-28T21:39:49.372Z,17.20
2022-08-28T21:42:16.075Z,17.20
2022-08-28T21:44:48.305Z,17.20
2022-08-28T21:47:21.354Z,17.20
2022-08-28T21:49:50.055Z,17.20
2022-08-28T21:52:18.279Z,17.20
2022-08-28T21:54:44.984Z,17.20
2022-08-28T21:57:11.723Z,17.10
2022-08-28T21:59:38.898Z,17.10
2022-08-28T22:02:06.364Z,17.00
2022-08-28T22:04:33.687Z,16.90
2022-08-28T22:07:00.404Z,16.90
2022-08-28T22:09:27.201Z,16.90
2022-08-28T22:11:53.895Z,16.90
2022-08-28T22:14:20.970Z,16.80
2022-08-28T22:16:47.798Z,16.80
2022-08-28T22:19:14.535Z,16.80
2022-08-28T22:22:00.002Z,16.80
2022-08-28T22:24:26.658Z,16.70
2022-08-28T22:26:57.538Z,16.60
2022-08-28T22:29:24.799Z,16.60
2022-08-28T22:31:52.423Z,16.60
2022-08-28T22:34:19.116Z,16.60
2022-08-28T22:36:45.774Z,16.60
2022-08-28T22:39:12.421Z,16.60
2022-08-28T22:41:39.060Z,16.60
2022-08-28T22:44:06.995Z,16.60
2022-08-28T22:46:33.675Z,16.60
2022-08-28T22:49:00.381Z,16.60
2022-08-28T22:51:27.056Z,16.60
2022-08-28T22:53:54.411Z,16.60
2022-08-28T22:56:21.480Z,16.60
2022-08-28T22:58:48.145Z,16.60
2022-08-28T23:01:19.440Z,16.60
2022-08-28T23:03:46.795Z,16.60
2022-08-28T23:06:13.861Z,16.50
2022-08-28T23:08:40.992Z,16.50
2022-08-28T23:11:07.829Z,16.50
2022-08-28T23:13:34.811Z,16.50
2022-08-28T23:16:02.087Z,16.50
2022-08-28T23:18:38.005Z,16.40
2022-08-28T23:21:13.230Z,16.40
2022-08-28T23:23:39.892Z,16.40
2022-08-28T23:26:11.848Z,16.40
2022-08-28T23:28:39.047Z,16.40
2022-08-28T23:31:05.846Z,16.40
2022-08-28T23:33:32.667Z,16.40
2022-08-28T23:35:59.394Z,16.40
2022-08-28T23:38:26.140Z,16.40
2022-08-28T23:40:52.886Z,16.30
2022-08-28T23:43:19.623Z,16.30
2022-08-28T23:45:46.798Z,16.30
2022-08-28T23:48:15.147Z,16.30
2022-08-28T23:50:42.459Z,16.30
2022-08-28T23:53:10.153Z,16.30
2022-08-28T23:55:36.807Z,16.30
2022-08-28T23:58:04.058Z,16.30
